Date,TemperatureHighF,TemperatureAvgF,TemperatureLowF,DewpointHighF,DewpointAvgF,DewpointLowF,HumidityHigh,HumidityAvg,HumidityLow,PressureMaxIn,PressureMinIn,WindSpeedMaxMPH,WindSpeedAvgMPH,GustSpeedMaxMPH,PrecipitationSumIn
2013-2-1,50.2,32.0,21.7,32.3,26.3,20.0,97,81,50,30.52,30.38,6,0,0,0.00
2013-2-2,45.8,32.0,22.4,31.6,26.5,20.7,96,82,52,30.63,30.50,8,1,0,0.01
2013-2-3,40.6,31.4,26.0,31.8,27.8,24.3,96,87,69,30.50,30.24,7,1,0,0.00
2013-2-4,49.1,32.3,22.8,34.3,27.5,21.3,96,84,54,30.37,30.24,7,1,0,0.00
2013-2-5,51.2,33.7,23.2,32.6,27.1,21.5,96,79,43,30.31,30.07,8,1,0,0.01
2013-2-6,49.5,35.2,26.1,33.0,28.7,24.1,94,79,51,30.21,30.02,7,1,0,0.00
2013-2-7,52.7,34.8,23.5,33.2,27.4,21.5,94,77,42,30.33,30.07,9,1,0,0.00
2013-2-8,57.4,41.2,29.9,34.6,29.4,23.3,91,67,27,30.08,29.62,31,3,31,0.00
2013-2-9,45.1,36.3,29.8,34.4,25.6,15.6,96,68,34,29.84,29.66,14,2,14,0.01
2013-2-10,43.6,35.2,29.2,29.4,24.8,19.0,93,67,39,29.98,29.83,14,2,14,0.00
2013-2-11,41.1,30.4,23.3,28.4,24.5,17.6,95,80,48,30.27,29.98,10,2,0,0.18
2013-2-12,41.1,28.4,18.7,21.8,17.9,13.9,86,67,35,30.45,30.27,9,2,0,0.00
2013-2-13,46.6,30.3,19.2,24.6,20.6,15.5,88,70,36,30.47,30.31,10,2,0,0.00
2013-2-14,51.3,34.6,22.9,28.4,24.1,20.0,91,69,35,30.40,30.31,10,2,0,0.00
2013-2-15,43.7,30.9,23.8,25.5,22.2,19.1,83,71,45,30.53,30.39,8,2,0,0.00
2013-2-16,55.2,35.4,22.1,26.2,22.6,18.2,86,63,28,30.57,30.22,7,2,0,0.00
2013-2-17,54.9,37.8,27.4,28.5,24.4,7.3,86,62,27,30.22,29.78,17,2,17,0.00
2013-2-18,47.6,33.0,20.0,19.8,13.0,4.2,81,48,17,30.24,30.00,13,2,12,0.00
2013-2-19,48.2,33.4,18.9,21.0,16.4,13.0,80,53,26,30.18,29.70,11,2,0,0.00
2013-2-20,49.7,36.7,26.9,25.2,22.9,20.8,81,59,32,29.70,29.58,18,1,18,0.00
2013-2-21,51.4,38.9,30.5,28.4,23.8,16.4,81,57,27,29.95,29.68,16,1,16,0.00
2013-2-22,42.7,35.1,27.3,25.5,16.9,11.2,73,49,31,30.17,29.95,19,3,19,0.00
2013-2-23,49.7,32.0,22.7,30.8,21.1,13.7,93,67,28,30.15,29.82,22,2,22,0.00
2013-2-24,38.1,29.2,18.4,26.0,19.5,11.9,84,67,51,30.25,29.98,19,3,19,0.13
2013-2-25,48.4,32.2,19.0,24.4,18.3,11.2,87,61,24,30.35,30.01,9,1,0,0.00
2013-2-26,44.2,33.9,22.9,26.1,18.8,9.2,82,57,26,30.32,30.01,16,2,16,0.00
2013-2-27,45.8,31.1,18.2,19.6,15.5,9.2,86,57,23,30.51,30.32,14,2,14,0.00
2013-2-28,51.8,33.9,18.5,19.8,16.0,11.4,80,52,21,30.59,30.44,9,2,0,0.00